createdAt,value
2022-10-08T00:01:13.687Z,87.58
2022-10-08T00:03:45.182Z,87.48
2022-10-08T00:06:13.790Z,87.46
2022-10-08T00:08:41.840Z,87.72
2022-10-08T00:11:11.367Z,87.70
2022-10-08T00:13:42.204Z,87.71
2022-10-08T00:16:21.006Z,88.07
2022-10-08T00:18:48.148Z,87.84
2022-10-08T00:21:35.428Z,87.84
2022-10-08T00:24:03.252Z,87.92
2022-10-08T00:26:31.003Z,87.82
2022-10-08T00:28:59.294Z,87.93
2022-10-08T00:31:28.159Z,87.76
2022-10-08T00:33:55.997Z,87.86
2022-10-08T00:36:23.946Z,87.92
2022-10-08T00:39:11.757Z,87.98
2022-10-08T00:41:38.501Z,87.83
2022-10-08T00:44:43.668Z,87.94
2022-10-08T00:47:18.574Z,87.90
2022-10-08T00:49:48.450Z,88.09
2022-10-08T00:52:15.175Z,87.89
2022-10-08T00:54:42.825Z,87.84
2022-10-08T00:57:09.575Z,87.96
2022-10-08T00:59:36.501Z,87.75
2022-10-08T01:02:04.053Z,87.76
2022-10-08T01:04:30.721Z,87.91
2022-10-08T01:07:18.339Z,87.85
2022-10-08T01:10:06.947Z,88.01
2022-10-08T01:12:40.882Z,87.99
2022-10-08T01:15:09.161Z,88.21
2022-10-08T01:17:41.679Z,87.76
2022-10-08T01:20:20.703Z,88.04
2022-10-08T01:23:13.527Z,87.94
2022-10-08T01:25:46.184Z,87.88
2022-10-08T01:28:22.110Z,87.73
2022-10-08T01:30:59.508Z,88.06
2022-10-08T01:33:33.022Z,88.01
2022-10-08T01:35:59.670Z,88.04
2022-10-08T01:38:27.610Z,87.99
2022-10-08T01:40:58.293Z,88.08
2022-10-08T01:43:27.668Z,87.84
2022-10-08T01:45:58.213Z,87.92
2022-10-08T01:48:28.640Z,87.96
2022-10-08T01:51:17.872Z,88.27
2022-10-08T01:55:16.267Z,88.17
2022-10-08T01:57:42.997Z,88.19
2022-10-08T02:00:11.579Z,88.08
2022-10-08T02:02:40.964Z,87.95
2022-10-08T02:05:07.961Z,87.93
2022-10-08T02:07:39.364Z,87.96
2022-10-08T02:10:07.398Z,87.90
2022-10-08T02:12:34.329Z,88.00
2022-10-08T02:15:00.933Z,87.86
2022-10-08T02:17:42.588Z,87.92
2022-10-08T02:20:17.108Z,87.84
2022-10-08T02:22:50.072Z,88.01
2022-10-08T02:25:22.766Z,88.08
2022-10-08T02:28:09.817Z,88.03
2022-10-08T02:31:14.166Z,87.97
2022-10-08T02:33:44.508Z,87.90
2022-10-08T02:36:11.535Z,88.04
2022-10-08T02:38:47.191Z,88.12
2022-10-08T02:41:13.875Z,88.31
2022-10-08T02:43:43.566Z,88.39
2022-10-08T02:46:21.522Z,88.34
2022-10-08T02:48:52.460Z,88.42
2022-10-08T02:51:19.153Z,88.82
2022-10-08T02:53:46.047Z,88.86
2022-10-08T02:56:20.516Z,89.21
2022-10-08T02:58:47.206Z,89.45
2022-10-08T03:01:34.036Z,89.99
2022-10-08T03:04:04.595Z,90.74
2022-10-08T03:06:31.571Z,91.26
2022-10-08T03:08:59.539Z,91.85
2022-10-08T03:11:26.554Z,92.19
2022-10-08T03:13:57.474Z,92.33
2022-10-08T03:16:26.807Z,92.86
2022-10-08T03:18:53.651Z,93.36
2022-10-08T03:21:20.283Z,93.68
2022-10-08T03:23:47.178Z,93.73
2022-10-08T03:26:17.272Z,93.66
2022-10-08T03:28:43.977Z,93.70
2022-10-08T03:31:10.675Z,93.88
2022-10-08T03:33:37.340Z,93.96
2022-10-08T03:36:04.283Z,93.78
2022-10-08T03:38:33.231Z,93.45
2022-10-08T03:40:59.975Z,93.09
2022-10-08T03:43:33.246Z,92.66
2022-10-08T03:46:00.015Z,92.18
2022-10-08T03:48:26.707Z,91.76
2022-10-08T03:51:01.280Z,91.48
2022-10-08T03:53:28.559Z,91.24
2022-10-08T03:55:55.205Z,91.45
2022-10-08T03:58:21.886Z,91.15
2022-10-08T04:00:58.412Z,91.07
2022-10-08T04:03:25.850Z,90.95
2022-10-08T04:05:52.589Z,91.07
2022-10-08T04:08:19.240Z,90.60
2022-10-08T04:10:45.878Z,90.41
2022-10-08T04:13:12.575Z,90.12
2022-10-08T04:15:39.284Z,90.05
2022-10-08T04:18:07.217Z,89.94
2022-10-08T04:20:34.164Z,89.64
2022-10-08T04:23:00.825Z,89.41
2022-10-08T04:25:27.480Z,89.38
2022-10-08T04:27:54.176Z,89.13
2022-10-08T04:30:20.867Z,88.96
2022-10-08T04:32:47.729Z,88.87
2022-10-08T04:35:14.816Z,88.88
2022-10-08T04:37:41.422Z,88.68
2022-10-08T04:40:08.866Z,88.73
2022-10-08T04:42:35.591Z,88.80
2022-10-08T04:45:02.230Z,88.80
2022-10-08T04:47:28.910Z,88.96
2022-10-08T04:49:55.764Z,89.12
2022-10-08T04:52:22.321Z,89.18
2022-10-08T04:54:48.999Z,89.50
2022-10-08T04:57:15.683Z,90.10
2022-10-08T05:00:05.814Z,90.68
2022-10-08T05:02:29.181Z,91.33
2022-10-08T05:04:55.785Z,92.05
2022-10-08T05:07:22.536Z,92.69
2022-10-08T05:09:49.235Z,93.04
2022-10-08T05:12:16.003Z,93.46
2022-10-08T05:14:42.559Z,93.73
2022-10-08T05:17:09.239Z,94.00
2022-10-08T05:19:35.885Z,94.10
2022-10-08T05:22:02.551Z,94.09
2022-10-08T05:24:29.227Z,93.99
2022-10-08T05:26:58.796Z,93.91
2022-10-08T05:29:26.111Z,93.82
2022-10-08T05:31:52.921Z,93.76
2022-10-08T05:34:19.709Z,93.70
2022-10-08T05:36:46.405Z,93.70
2022-10-08T05:39:13.194Z,93.58
2022-10-08T05:41:39.790Z,93.34
2022-10-08T05:44:06.754Z,93.16
2022-10-08T05:46:34.266Z,92.97
2022-10-08T05:49:01.924Z,92.63
2022-10-08T05:51:28.698Z,92.40
2022-10-08T05:53:55.490Z,92.05
2022-10-08T05:56:23.296Z,91.90
2022-10-08T05:58:50.110Z,91.40
2022-10-08T06:01:20.294Z,90.95
2022-10-08T06:03:53.862Z,90.51
2022-10-08T06:06:20.836Z,90.27
2022-10-08T06:08:47.640Z,89.89
2022-10-08T06:11:14.202Z,89.49
2022-10-08T06:13:40.980Z,89.11
2022-10-08T06:16:08.453Z,88.72
2022-10-08T06:18:36.704Z,88.32
2022-10-08T06:21:04.571Z,87.94
2022-10-08T06:23:31.292Z,87.46
2022-10-08T06:26:01.121Z,87.22
2022-10-08T06:28:27.828Z,86.72
2022-10-08T06:30:54.417Z,86.28
2022-10-08T06:33:21.104Z,86.08
2022-10-08T06:35:47.712Z,85.56
2022-10-08T06:38:14.380Z,85.01
2022-10-08T06:40:41.041Z,84.67
2022-10-08T06:43:09.687Z,84.28
2022-10-08T06:45:40.054Z,84.06
2022-10-08T06:48:06.878Z,83.81
2022-10-08T06:50:33.514Z,83.31
2022-10-08T06:53:00.260Z,82.99
2022-10-08T06:55:26.869Z,82.55
2022-10-08T06:57:53.562Z,82.15
2022-10-08T07:00:20.319Z,82.09
2022-10-08T07:02:47.177Z,81.71
2022-10-08T07:05:14.213Z,81.31
2022-10-08T07:07:40.926Z,80.89
2022-10-08T07:10:07.826Z,80.39
2022-10-08T07:12:34.515Z,79.83
2022-10-08T07:15:01.131Z,79.40
2022-10-08T07:17:28.792Z,79.18
2022-10-08T07:19:56.200Z,78.90
2022-10-08T07:22:23.524Z,78.31
2022-10-08T07:24:50.485Z,77.91
2022-10-08T07:27:18.172Z,77.62
2022-10-08T07:29:44.890Z,76.83
2022-10-08T07:32:11.630Z,76.51
2022-10-08T07:34:38.260Z,76.25
2022-10-08T07:37:04.839Z,75.94
2022-10-08T07:39:31.664Z,75.43
2022-10-08T07:41:58.336Z,74.86
2022-10-08T07:44:25.009Z,74.61
2022-10-08T07:46:53.381Z,74.37
2022-10-08T07:49:20.720Z,74.12
2022-10-08T07:51:48.113Z,73.47
2022-10-08T07:54:16.382Z,73.04
2022-10-08T07:56:43.030Z,72.65
2022-10-08T07:59:09.705Z,72.26
2022-10-08T08:01:36.489Z,72.09
2022-10-08T08:04:05.763Z,72.13
2022-10-08T08:06:33.032Z,71.59
2022-10-08T08:09:00.267Z,71.69
2022-10-08T08:11:26.974Z,71.66
2022-10-08T08:13:53.629Z,71.85
2022-10-08T08:16:27.885Z,71.64
2022-10-08T08:18:59.064Z,70.71
2022-10-08T08:21:27.582Z,70.69
2022-10-08T08:23:55.204Z,70.34
2022-10-08T08:26:27.150Z,69.93
2022-10-08T08:28:58.360Z,69.22
2022-10-08T08:31:30.125Z,69.04
2022-10-08T08:33:58.567Z,68.64
2022-10-08T08:36:30.167Z,68.50
2022-10-08T08:38:57.098Z,68.11
2022-10-08T08:41:39.000Z,67.58
2022-10-08T08:44:18.208Z,67.49
2022-10-08T08:46:57.041Z,67.29
2022-10-08T08:49:47.203Z,67.26
2022-10-08T08:52:16.171Z,66.89
2022-10-08T08:54:45.805Z,66.83
2022-10-08T08:57:50.812Z,66.81
2022-10-08T09:00:19.590Z,66.66
2022-10-08T09:03:24.848Z,66.10
2022-10-08T09:05:53.358Z,65.93
2022-10-08T09:08:29.561Z,66.08
2022-10-08T09:11:01.607Z,65.91
2022-10-08T09:13:49.088Z,65.77
2022-10-08T09:16:16.109Z,65.55
2022-10-08T09:18:46.998Z,65.10
2022-10-08T09:21:13.725Z,64.89
2022-10-08T09:23:40.631Z,64.22
2022-10-08T09:26:30.709Z,63.55
2022-10-08T09:29:00.837Z,63.63
2022-10-08T09:31:37.197Z,63.54
2022-10-08T09:34:10.833Z,63.36
2022-10-08T09:36:41.891Z,63.37
2022-10-08T09:39:35.859Z,62.17
2022-10-08T09:42:09.231Z,60.85
2022-10-08T09:44:46.298Z,60.11
2022-10-08T09:47:17.660Z,59.88
2022-10-08T09:49:44.967Z,59.52
2022-10-08T09:52:26.877Z,59.63
2022-10-08T09:54:55.348Z,59.28
2022-10-08T09:57:22.154Z,59.27
2022-10-08T09:59:54.972Z,59.06
2022-10-08T10:02:35.288Z,59.03
2022-10-08T10:05:06.529Z,58.88
2022-10-08T10:07:51.765Z,58.36
2022-10-08T10:10:28.812Z,57.95
2022-10-08T10:13:02.914Z,57.96
2022-10-08T10:15:35.435Z,57.33
2022-10-08T10:18:04.306Z,57.38
2022-10-08T10:20:51.127Z,57.56
2022-10-08T10:23:46.207Z,57.87
2022-10-08T10:26:30.241Z,58.05
2022-10-08T10:29:08.760Z,58.42
2022-10-08T10:31:38.499Z,57.96
2022-10-08T10:34:20.737Z,57.48
2022-10-08T10:37:01.595Z,57.21
2022-10-08T10:39:46.751Z,57.10
2022-10-08T10:42:24.449Z,56.40
2022-10-08T10:44:54.861Z,55.59
2022-10-08T10:47:31.820Z,55.96
2022-10-08T10:50:00.317Z,56.74
2022-10-08T10:52:46.058Z,56.94
2022-10-08T10:55:31.957Z,56.39
2022-10-08T10:58:36.445Z,56.81
2022-10-08T11:01:35.517Z,56.47
2022-10-08T11:04:27.105Z,56.82
2022-10-08T11:07:03.551Z,56.60
2022-10-08T11:09:47.220Z,56.53
2022-10-08T11:12:42.270Z,57.71
2022-10-08T11:15:27.219Z,58.33
2022-10-08T11:18:18.039Z,58.11
2022-10-08T11:21:03.478Z,58.20
2022-10-08T11:23:33.285Z,58.28
2022-10-08T11:26:23.147Z,58.23
2022-10-08T11:29:34.797Z,57.63
2022-10-08T11:32:01.460Z,57.40
2022-10-08T11:34:29.261Z,57.81
2022-10-08T11:37:14.534Z,58.01
2022-10-08T11:40:21.332Z,58.39
2022-10-08T11:42:57.180Z,57.85
2022-10-08T11:45:23.862Z,57.18
2022-10-08T11:47:54.480Z,57.53
2022-10-08T11:50:28.411Z,57.52
2022-10-08T11:53:00.541Z,57.42
2022-10-08T11:55:29.933Z,56.94
2022-10-08T11:58:14.053Z,57.15
2022-10-08T12:00:45.133Z,57.03
2022-10-08T12:03:25.058Z,57.11
2022-10-08T12:05:54.766Z,56.81
2022-10-08T12:08:53.237Z,57.14
2022-10-08T12:11:47.109Z,56.93
2022-10-08T12:14:17.063Z,57.56
2022-10-08T12:16:55.782Z,57.35
2022-10-08T12:19:34.670Z,57.25
2022-10-08T12:22:08.234Z,57.32
2022-10-08T12:24:37.925Z,57.46
2022-10-08T12:27:16.885Z,57.11
2022-10-08T12:29:52.850Z,56.86
2022-10-08T12:32:19.539Z,57.36
2022-10-08T12:34:46.206Z,57.15
2022-10-08T12:37:37.752Z,57.59
2022-10-08T12:40:13.022Z,57.73
2022-10-08T12:42:39.710Z,56.86
2022-10-08T12:45:07.918Z,56.53
2022-10-08T12:47:47.354Z,56.71
2022-10-08T12:50:51.520Z,56.72
2022-10-08T12:53:18.159Z,56.09
2022-10-08T12:55:55.591Z,55.71
2022-10-08T12:58:24.809Z,56.30
2022-10-08T13:00:56.830Z,55.71
2022-10-08T13:03:23.663Z,55.14
2022-10-08T13:05:50.463Z,54.96
2022-10-08T13:08:38.720Z,55.00
2022-10-08T13:11:10.152Z,54.69
2022-10-08T13:13:39.628Z,55.17
2022-10-08T13:16:09.475Z,54.74
2022-10-08T13:18:36.921Z,54.09
2022-10-08T13:21:05.162Z,54.15
2022-10-08T13:23:35.597Z,54.31
2022-10-08T13:26:02.620Z,54.59
2022-10-08T13:28:58.604Z,54.85
2022-10-08T13:31:22.423Z,54.47
2022-10-08T13:33:49.188Z,54.46
2022-10-08T13:36:21.049Z,54.28
2022-10-08T13:38:47.699Z,54.33
2022-10-08T13:41:23.374Z,54.19
2022-10-08T13:43:50.057Z,54.41
2022-10-08T13:46:16.836Z,54.53
2022-10-08T13:48:44.158Z,54.59
2022-10-08T13:51:10.815Z,54.06
2022-10-08T13:53:37.564Z,54.24
2022-10-08T13:56:04.296Z,54.63
2022-10-08T13:58:32.728Z,54.37
2022-10-08T14:00:59.509Z,54.56
2022-10-08T14:03:26.171Z,54.17
2022-10-08T14:05:52.830Z,54.18
2022-10-08T14:08:26.942Z,54.28
2022-10-08T14:12:15.082Z,54.25
2022-10-08T14:14:41.772Z,54.21
2022-10-08T14:17:08.427Z,54.13
2022-10-08T14:19:35.097Z,54.31
2022-10-08T14:22:01.798Z,54.56
2022-10-08T14:24:28.474Z,54.40
2022-10-08T14:26:55.314Z,54.64
2022-10-08T14:29:22.053Z,54.53
2022-10-08T14:31:48.783Z,54.38
2022-10-08T14:34:15.470Z,54.07
2022-10-08T14:36:42.557Z,53.66
2022-10-08T14:39:10.130Z,53.42
2022-10-08T14:41:37.489Z,53.48
2022-10-08T14:44:04.203Z,53.88
2022-10-08T14:46:30.910Z,54.19
2022-10-08T14:48:58.020Z,54.33
2022-10-08T14:51:24.712Z,54.49
2022-10-08T14:53:52.312Z,54.76
2022-10-08T14:56:18.961Z,55.16
2022-10-08T14:58:45.658Z,55.42
2022-10-08T15:01:12.413Z,55.82
2022-10-08T15:03:39.114Z,56.12
2022-10-08T15:06:06.202Z,55.56
2022-10-08T15:08:32.913Z,55.43
2022-10-08T15:11:01.797Z,55.66
2022-10-08T15:13:29.099Z,55.49
2022-10-08T15:15:55.769Z,55.58
2022-10-08T15:18:22.955Z,55.61
2022-10-08T15:20:56.633Z,55.77
2022-10-08T15:23:23.885Z,56.01
2022-10-08T15:26:01.292Z,55.90
2022-10-08T15:28:28.310Z,56.05
2022-10-08T15:31:22.525Z,56.15
2022-10-08T15:33:50.037Z,56.37
2022-10-08T15:36:27.079Z,56.70
2022-10-08T15:38:58.397Z,56.93
2022-10-08T15:41:25.306Z,57.06
2022-10-08T15:43:52.042Z,57.16
2022-10-08T15:46:19.880Z,57.36
2022-10-08T15:48:53.884Z,57.51
2022-10-08T15:51:21.108Z,57.57
2022-10-08T15:53:47.967Z,57.71
2022-10-08T15:56:14.634Z,57.89
2022-10-08T15:58:56.527Z,58.05
2022-10-08T16:01:23.547Z,58.32
2022-10-08T16:03:52.101Z,58.42
2022-10-08T16:06:20.793Z,58.67
2022-10-08T16:08:47.534Z,58.85
2022-10-08T16:11:15.394Z,59.15
2022-10-08T16:13:43.030Z,59.23
2022-10-08T16:16:14.790Z,59.36
2022-10-08T16:18:42.077Z,59.59
2022-10-08T16:21:09.812Z,59.60
2022-10-08T16:23:37.470Z,59.74
2022-10-08T16:26:05.767Z,59.73
2022-10-08T16:28:33.734Z,59.79
2022-10-08T16:31:00.533Z,59.83
2022-10-08T16:33:27.344Z,59.80
2022-10-08T16:35:54.413Z,59.71
2022-10-08T16:38:21.150Z,59.70
2022-10-08T16:40:47.854Z,59.88
2022-10-08T16:43:14.559Z,59.82
2022-10-08T16:45:41.315Z,59.78
2022-10-08T16:48:10.897Z,59.75
2022-10-08T16:50:39.118Z,59.93
2022-10-08T16:53:08.602Z,60.04
2022-10-08T16:55:36.420Z,60.24
2022-10-08T16:58:03.287Z,60.41
2022-10-08T17:00:30.125Z,60.70
2022-10-08T17:02:56.843Z,60.67
2022-10-08T17:05:23.755Z,61.10
2022-10-08T17:07:50.449Z,61.29
2022-10-08T17:10:17.228Z,61.45
2022-10-08T17:12:43.944Z,61.67
2022-10-08T17:15:10.838Z,62.13
2022-10-08T17:17:37.554Z,62.14
2022-10-08T17:20:04.531Z,62.44
2022-10-08T17:22:31.215Z,62.59
2022-10-08T17:24:57.828Z,62.72
2022-10-08T17:27:24.570Z,62.77
2022-10-08T17:29:51.177Z,62.89
2022-10-08T17:32:17.839Z,62.97
2022-10-08T17:34:44.451Z,63.13
2022-10-08T17:37:11.118Z,63.34
2022-10-08T17:39:37.694Z,63.31
2022-10-08T17:42:07.169Z,63.49
2022-10-08T17:44:34.561Z,63.75
2022-10-08T17:47:01.253Z,63.75
2022-10-08T17:49:28.491Z,63.68
2022-10-08T17:51:55.481Z,63.55
2022-10-08T17:54:22.672Z,63.79
2022-10-08T17:56:49.645Z,63.75
2022-10-08T17:59:17.465Z,63.65
2022-10-08T18:01:45.486Z,63.47
2022-10-08T18:04:13.635Z,63.35
2022-10-08T18:06:40.985Z,63.07
2022-10-08T18:09:10.703Z,62.25
2022-10-08T18:11:38.633Z,61.72
2022-10-08T18:14:05.624Z,60.43
2022-10-08T18:16:32.342Z,59.51
2022-10-08T18:18:59.132Z,58.65
2022-10-08T18:21:25.868Z,58.19
2022-10-08T18:23:52.500Z,57.77
2022-10-08T18:26:23.771Z,57.76
2022-10-08T18:28:54.596Z,57.96
2022-10-08T18:31:22.729Z,58.34
2022-10-08T18:33:51.088Z,58.65
2022-10-08T18:36:22.514Z,58.80
2022-10-08T18:38:53.934Z,58.81
2022-10-08T18:41:22.434Z,58.99
2022-10-08T18:43:49.447Z,58.97
2022-10-08T18:46:18.416Z,59.16
2022-10-08T18:48:45.264Z,59.25
2022-10-08T18:51:12.847Z,59.41
2022-10-08T18:53:41.046Z,59.57
2022-10-08T18:56:10.354Z,59.81
2022-10-08T18:58:38.125Z,59.99
2022-10-08T19:01:05.472Z,60.00
2022-10-08T19:03:32.216Z,60.04
2022-10-08T19:05:58.866Z,60.21
2022-10-08T19:08:25.682Z,60.09
2022-10-08T19:10:52.614Z,60.15
2022-10-08T19:13:20.018Z,60.33
2022-10-08T19:15:46.890Z,60.33
2022-10-08T19:18:13.627Z,60.19
2022-10-08T19:20:40.182Z,60.22
2022-10-08T19:23:06.840Z,60.24
2022-10-08T19:25:34.692Z,60.17
2022-10-08T19:28:04.444Z,60.31
2022-10-08T19:30:34.127Z,60.32
2022-10-08T19:33:01.187Z,60.35
2022-10-08T19:35:27.989Z,60.56
2022-10-08T19:37:54.586Z,60.67
2022-10-08T19:40:21.447Z,60.81
2022-10-08T19:42:51.192Z,60.78
2022-10-08T19:45:18.159Z,61.19
2022-10-08T19:47:44.782Z,61.24
2022-10-08T19:50:11.466Z,61.41
2022-10-08T19:52:38.065Z,61.61
2022-10-08T19:55:05.289Z,61.76
2022-10-08T19:57:31.922Z,61.95
2022-10-08T19:59:58.562Z,62.20
2022-10-08T20:02:25.642Z,62.56
2022-10-08T20:04:52.371Z,62.87
2022-10-08T20:07:18.983Z,62.85
2022-10-08T20:09:45.651Z,63.02
2022-10-08T20:12:12.364Z,63.32
2022-10-08T20:14:38.949Z,63.56
2022-10-08T20:17:05.642Z,63.61
2022-10-08T20:19:32.401Z,63.92
2022-10-08T20:21:58.960Z,64.05
2022-10-08T20:24:25.672Z,64.31
2022-10-08T20:26:52.375Z,64.39
2022-10-08T20:29:20.052Z,64.57
2022-10-08T20:31:54.036Z,64.58
2022-10-08T20:34:27.088Z,64.70
2022-10-08T20:36:53.985Z,64.87
2022-10-08T20:39:21.012Z,65.13
2022-10-08T20:41:47.815Z,65.05
2022-10-08T20:44:14.560Z,65.29
2022-10-08T20:46:41.439Z,65.47
2022-10-08T20:49:09.796Z,65.41
2022-10-08T20:51:38.399Z,65.45
2022-10-08T20:54:07.338Z,65.50
2022-10-08T20:56:39.177Z,65.49
2022-10-08T20:59:06.502Z,65.59
2022-10-08T21:01:36.695Z,65.65
2022-10-08T21:04:06.996Z,65.64
2022-10-08T21:06:41.594Z,65.71
2022-10-08T21:09:08.371Z,65.79
2022-10-08T21:11:35.270Z,65.83
2022-10-08T21:14:03.657Z,65.94
2022-10-08T21:16:38.436Z,65.87
2022-10-08T21:19:06.822Z,65.71
2022-10-08T21:21:33.999Z,66.03
2022-10-08T21:24:00.739Z,66.33
2022-10-08T21:26:28.165Z,66.16
2022-10-08T21:28:57.529Z,66.36
2022-10-08T21:31:24.388Z,66.52
2022-10-08T21:33:51.820Z,66.50
2022-10-08T21:36:20.766Z,66.79
2022-10-08T21:38:47.528Z,66.54
2022-10-08T21:41:14.788Z,66.90
2022-10-08T21:43:43.426Z,67.23
2022-10-08T21:46:11.428Z,67.30
2022-10-08T21:48:38.190Z,67.45
2022-10-08T21:51:09.097Z,67.76
2022-10-08T21:53:36.760Z,67.93
2022-10-08T21:56:05.234Z,68.11
2022-10-08T21:58:35.838Z,68.52
2022-10-08T22:01:02.632Z,68.81
2022-10-08T22:03:29.342Z,69.00
2022-10-08T22:06:01.575Z,69.15
2022-10-08T22:08:29.101Z,69.30
2022-10-08T22:10:55.854Z,69.46
2022-10-08T22:13:22.750Z,69.73
2022-10-08T22:15:54.063Z,69.87
2022-10-08T22:18:21.159Z,70.14
2022-10-08T22:20:47.854Z,70.67
2022-10-08T22:23:14.660Z,70.77
2022-10-08T22:25:41.304Z,71.10
2022-10-08T22:28:08.025Z,71.40
2022-10-08T22:30:35.932Z,71.88
2022-10-08T22:33:03.294Z,71.94
2022-10-08T22:35:33.494Z,72.15
2022-10-08T22:38:00.424Z,72.52
2022-10-08T22:40:27.404Z,72.57
2022-10-08T22:42:54.034Z,72.88
2022-10-08T22:45:20.772Z,72.94
2022-10-08T22:47:47.415Z,73.10
2022-10-08T22:50:14.354Z,73.61
2022-10-08T22:52:41.077Z,73.60
2022-10-08T22:55:08.086Z,73.67
2022-10-08T22:57:34.728Z,73.63
2022-10-08T23:00:01.454Z,73.62
2022-10-08T23:02:28.218Z,73.61
2022-10-08T23:04:54.821Z,73.63
2022-10-08T23:07:21.509Z,73.76
2022-10-08T23:09:48.164Z,73.85
2022-10-08T23:12:14.818Z,74.16
2022-10-08T23:14:41.494Z,73.96
2022-10-08T23:17:08.208Z,74.10
2022-10-08T23:19:34.799Z,74.12
2022-10-08T23:22:01.493Z,74.22
2022-10-08T23:24:29.301Z,74.35
2022-10-08T23:26:56.040Z,74.48
2022-10-08T23:29:22.671Z,74.50
2022-10-08T23:31:49.358Z,74.40
2022-10-08T23:34:15.971Z,74.68
2022-10-08T23:36:42.919Z,74.74
2022-10-08T23:39:12.278Z,74.78
2022-10-08T23:41:38.953Z,75.02
2022-10-08T23:44:05.722Z,75.02
2022-10-08T23:46:32.355Z,74.89
2022-10-08T23:48:59.509Z,75.16
2022-10-08T23:51:28.131Z,75.27
2022-10-08T23:53:54.874Z,75.25
2022-10-08T23:56:21.708Z,75.49
2022-10-08T23:58:48.658Z,75.63
